createdAt,value
2022-09-14T00:01:27.721Z,74.20
2022-09-14T00:03:57.053Z,74.54
2022-09-14T00:06:24.659Z,74.21
2022-09-14T00:08:53.100Z,74.44
2022-09-14T00:11:22.664Z,75.37
2022-09-14T00:13:50.546Z,75.48
2022-09-14T00:16:21.107Z,75.36
2022-09-14T00:18:59.175Z,75.60
2022-09-14T00:21:27.409Z,75.44
2022-09-14T00:23:54.570Z,75.52
2022-09-14T00:26:22.790Z,76.29
2022-09-14T00:28:55.350Z,76.36
2022-09-14T00:31:23.940Z,76.71
2022-09-14T00:33:52.004Z,77.14
2022-09-14T00:36:27.622Z,77.30
2022-09-14T00:38:56.778Z,77.74
2022-09-14T00:41:27.223Z,78.64
2022-09-14T00:44:06.162Z,78.63
2022-09-14T00:46:46.352Z,78.71
2022-09-14T00:49:34.571Z,78.84
2022-09-14T00:52:23.074Z,78.42
2022-09-14T00:54:58.540Z,78.81
2022-09-14T00:57:27.963Z,78.84
2022-09-14T00:59:55.731Z,78.14
2022-09-14T01:02:24.315Z,79.16
2022-09-14T01:04:51.996Z,79.19
2022-09-14T01:07:22.280Z,79.40
2022-09-14T01:09:55.588Z,79.31
2022-09-14T01:12:46.623Z,78.98
2022-09-14T01:15:32.388Z,79.79
2022-09-14T01:18:15.528Z,79.49
2022-09-14T01:20:54.602Z,79.31
2022-09-14T01:23:43.570Z,79.38
2022-09-14T01:26:32.433Z,79.31
2022-09-14T01:29:42.024Z,79.43
2022-09-14T01:32:20.383Z,79.58
2022-09-14T01:35:15.771Z,79.71
2022-09-14T01:37:50.916Z,79.79
2022-09-14T01:40:37.511Z,80.11
2022-09-14T01:43:10.859Z,80.40
2022-09-14T01:45:50.425Z,79.99
2022-09-14T01:48:22.745Z,79.62
2022-09-14T01:50:56.974Z,79.01
2022-09-14T01:53:37.670Z,79.31
2022-09-14T01:56:15.823Z,79.79
2022-09-14T01:58:57.218Z,79.92
2022-09-14T02:01:37.856Z,79.50
2022-09-14T02:04:08.658Z,79.79
2022-09-14T02:06:39.890Z,79.42
2022-09-14T02:09:10.237Z,79.52
2022-09-14T02:11:38.543Z,79.42
2022-09-14T02:14:06.154Z,79.62
2022-09-14T02:16:34.831Z,79.79
2022-09-14T02:19:02.483Z,80.15
2022-09-14T02:21:31.861Z,80.00
2022-09-14T02:24:00.165Z,79.57
2022-09-14T02:26:28.275Z,79.55
2022-09-14T02:28:56.254Z,79.26
2022-09-14T02:31:48.591Z,78.81
2022-09-14T02:34:48.313Z,78.26
2022-09-14T02:37:21.938Z,78.72
2022-09-14T02:40:07.965Z,78.15
2022-09-14T02:42:53.731Z,78.05
2022-09-14T02:45:33.197Z,77.72
2022-09-14T02:48:06.425Z,77.73
2022-09-14T02:50:33.560Z,77.81
2022-09-14T02:53:12.928Z,77.54
2022-09-14T02:55:46.989Z,78.31
2022-09-14T02:58:15.122Z,78.24
2022-09-14T03:00:45.687Z,77.63
2022-09-14T03:03:15.629Z,77.36
2022-09-14T03:05:42.976Z,77.40
2022-09-14T03:08:10.962Z,77.12
2022-09-14T03:10:38.720Z,77.90
2022-09-14T03:13:05.943Z,78.20
2022-09-14T03:15:33.181Z,78.16
2022-09-14T03:18:00.539Z,78.71
2022-09-14T03:20:29.395Z,78.47
2022-09-14T03:22:58.524Z,78.72
2022-09-14T03:25:26.040Z,78.99
2022-09-14T03:27:58.808Z,79.01
2022-09-14T03:30:26.485Z,78.75
2022-09-14T03:32:53.722Z,78.88
2022-09-14T03:35:20.997Z,78.55
2022-09-14T03:37:48.375Z,78.74
2022-09-14T03:40:21.423Z,78.59
2022-09-14T03:42:50.712Z,79.21
2022-09-14T03:45:19.030Z,79.18
2022-09-14T03:47:49.153Z,78.97
2022-09-14T03:50:17.780Z,79.27
2022-09-14T03:52:45.130Z,79.48
2022-09-14T03:55:12.421Z,79.67
2022-09-14T03:57:41.737Z,78.85
2022-09-14T04:00:10.293Z,79.30
2022-09-14T04:02:41.218Z,79.58
2022-09-14T04:05:08.622Z,80.20
2022-09-14T04:07:36.361Z,80.39
2022-09-14T04:10:05.564Z,80.52
2022-09-14T04:12:36.956Z,80.43
2022-09-14T04:15:06.018Z,81.05
2022-09-14T04:17:33.506Z,79.63
2022-09-14T04:20:00.766Z,80.17
2022-09-14T04:22:28.046Z,80.60
2022-09-14T04:24:55.334Z,80.10
2022-09-14T04:27:23.285Z,80.19
2022-09-14T04:29:50.645Z,79.79
2022-09-14T04:32:17.897Z,79.86
2022-09-14T04:34:45.174Z,80.12
2022-09-14T04:37:12.364Z,79.45
2022-09-14T04:39:39.677Z,80.07
2022-09-14T04:42:07.430Z,80.00
2022-09-14T04:44:34.605Z,80.69
2022-09-14T04:47:01.926Z,79.97
2022-09-14T04:49:29.284Z,80.33
2022-09-14T04:51:56.519Z,79.70
2022-09-14T04:54:23.712Z,80.24
2022-09-14T04:56:50.909Z,80.22
2022-09-14T04:59:18.273Z,80.02
2022-09-14T05:01:47.725Z,80.20
2022-09-14T05:04:15.483Z,80.75
2022-09-14T05:06:44.236Z,80.85
2022-09-14T05:09:16.597Z,82.69
2022-09-14T05:11:44.553Z,82.14
2022-09-14T05:14:13.303Z,82.46
2022-09-14T05:16:41.510Z,82.41
2022-09-14T05:19:12.291Z,82.98
2022-09-14T05:21:39.664Z,83.78
2022-09-14T05:24:15.142Z,83.71
2022-09-14T05:26:43.593Z,82.92
2022-09-14T05:29:16.906Z,83.16
2022-09-14T05:31:45.995Z,83.29
2022-09-14T05:34:13.409Z,82.92
2022-09-14T05:36:41.098Z,83.24
2022-09-14T05:39:08.762Z,83.30
2022-09-14T05:41:36.278Z,83.04
2022-09-14T05:44:04.171Z,83.09
2022-09-14T05:46:31.605Z,82.49
2022-09-14T05:48:59.033Z,83.25
2022-09-14T05:51:27.645Z,83.20
2022-09-14T05:53:56.937Z,83.20
2022-09-14T05:56:26.679Z,82.96
2022-09-14T05:58:54.286Z,82.83
2022-09-14T06:01:27.270Z,83.03
2022-09-14T06:03:56.310Z,83.36
2022-09-14T06:06:24.109Z,82.53
2022-09-14T06:08:55.049Z,82.57
2022-09-14T06:11:28.535Z,82.79
2022-09-14T06:13:56.648Z,83.26
2022-09-14T06:16:25.195Z,83.21
2022-09-14T06:18:54.212Z,83.37
2022-09-14T06:21:23.826Z,83.48
2022-09-14T06:23:51.985Z,84.11
2022-09-14T06:26:20.727Z,84.20
2022-09-14T06:28:48.095Z,84.72
2022-09-14T06:31:17.901Z,83.63
2022-09-14T06:33:46.548Z,83.89
2022-09-14T06:36:21.774Z,83.67
2022-09-14T06:38:49.997Z,84.27
2022-09-14T06:41:20.479Z,84.37
2022-09-14T06:43:48.819Z,83.69
2022-09-14T06:46:21.799Z,83.89
2022-09-14T06:48:55.611Z,84.31
2022-09-14T06:51:37.164Z,84.42
2022-09-14T06:54:05.171Z,84.67
2022-09-14T06:56:35.041Z,83.72
2022-09-14T06:59:02.591Z,83.71
2022-09-14T07:01:30.101Z,82.59
2022-09-14T07:03:58.586Z,83.16
2022-09-14T07:06:33.881Z,82.90
2022-09-14T07:09:03.980Z,82.06
2022-09-14T07:11:31.994Z,81.61
2022-09-14T07:13:59.913Z,81.79
2022-09-14T07:16:28.766Z,80.83
2022-09-14T07:18:57.778Z,79.97
2022-09-14T07:21:26.173Z,80.39
2022-09-14T07:23:53.973Z,79.39
2022-09-14T07:26:26.928Z,79.84
2022-09-14T07:28:59.937Z,80.25
2022-09-14T07:31:30.459Z,79.00
2022-09-14T07:34:00.139Z,78.77
2022-09-14T07:36:30.475Z,78.23
2022-09-14T07:39:01.781Z,77.65
2022-09-14T07:41:30.368Z,77.88
2022-09-14T07:44:00.516Z,78.69
2022-09-14T07:46:29.699Z,78.16
2022-09-14T07:48:58.783Z,77.97
2022-09-14T07:51:26.682Z,77.57
2022-09-14T07:53:54.240Z,75.81
2022-09-14T07:56:21.936Z,75.45
2022-09-14T07:58:53.996Z,74.33
2022-09-14T08:01:23.319Z,73.51
2022-09-14T08:03:51.035Z,74.02
2022-09-14T08:06:21.567Z,73.30
2022-09-14T08:08:55.479Z,74.57
2022-09-14T08:11:30.805Z,73.62
2022-09-14T08:14:16.128Z,72.46
2022-09-14T08:16:46.308Z,73.18
2022-09-14T08:19:17.894Z,74.17
2022-09-14T08:21:47.086Z,73.57
2022-09-14T08:24:17.590Z,73.03
2022-09-14T08:26:45.079Z,73.74
2022-09-14T08:29:16.489Z,73.31
2022-09-14T08:31:47.367Z,73.41
2022-09-14T08:34:15.956Z,73.40
2022-09-14T08:36:43.871Z,73.79
2022-09-14T08:39:12.381Z,73.71
2022-09-14T08:41:45.812Z,73.03
2022-09-14T08:44:34.117Z,73.38
2022-09-14T08:47:04.238Z,74.17
2022-09-14T08:49:37.495Z,73.82
2022-09-14T08:52:05.201Z,74.23
2022-09-14T08:54:37.140Z,73.74
2022-09-14T08:57:16.544Z,73.26
2022-09-14T08:59:52.870Z,73.47
2022-09-14T09:02:44.609Z,73.34
2022-09-14T09:05:20.916Z,72.88
2022-09-14T09:07:54.282Z,73.40
2022-09-14T09:10:21.891Z,73.19
2022-09-14T09:12:53.668Z,72.87
2022-09-14T09:15:24.303Z,72.78
2022-09-14T09:18:09.657Z,72.54
2022-09-14T09:20:44.330Z,71.41
2022-09-14T09:23:16.306Z,70.98
2022-09-14T09:26:07.024Z,70.20
2022-09-14T09:28:34.581Z,70.17
2022-09-14T09:31:05.593Z,70.28
2022-09-14T09:33:52.993Z,69.56
2022-09-14T09:36:23.316Z,69.32
2022-09-14T09:38:50.880Z,68.34
2022-09-14T09:41:27.123Z,67.14
2022-09-14T09:44:01.863Z,67.49
2022-09-14T09:46:34.244Z,67.48
2022-09-14T09:49:22.953Z,65.67
2022-09-14T09:51:50.684Z,64.74
2022-09-14T09:54:29.709Z,64.32
2022-09-14T09:57:05.579Z,65.04
2022-09-14T09:59:35.394Z,63.17
2022-09-14T10:02:24.282Z,61.35
2022-09-14T10:05:22.663Z,62.83
2022-09-14T10:07:52.232Z,63.07
2022-09-14T10:10:22.333Z,62.75
2022-09-14T10:12:56.385Z,62.41
2022-09-14T10:15:31.874Z,62.87
2022-09-14T10:18:11.427Z,61.69
2022-09-14T10:20:42.212Z,61.49
2022-09-14T10:23:18.614Z,61.68
2022-09-14T10:25:47.311Z,60.33
2022-09-14T10:28:28.782Z,61.45
2022-09-14T10:31:08.640Z,61.95
2022-09-14T10:33:35.979Z,59.86
2022-09-14T10:36:16.148Z,60.23
2022-09-14T10:38:52.818Z,60.30
2022-09-14T10:41:30.993Z,60.13
2022-09-14T10:44:22.815Z,60.69
2022-09-14T10:47:07.548Z,60.41
2022-09-14T10:49:53.349Z,59.65
2022-09-14T10:52:24.654Z,58.00
2022-09-14T10:55:07.921Z,56.60
2022-09-14T10:57:35.177Z,57.33
2022-09-14T11:00:14.964Z,57.63
2022-09-14T11:02:45.240Z,57.45
2022-09-14T11:05:22.496Z,57.07
2022-09-14T11:08:14.180Z,57.69
2022-09-14T11:10:52.116Z,56.86
2022-09-14T11:13:44.517Z,56.33
2022-09-14T11:16:41.200Z,56.25
2022-09-14T11:19:37.039Z,54.83
2022-09-14T11:22:46.674Z,54.18
2022-09-14T11:25:25.368Z,54.54
2022-09-14T11:27:57.659Z,56.59
2022-09-14T11:30:33.196Z,56.96
2022-09-14T11:33:09.128Z,56.25
2022-09-14T11:35:53.202Z,55.61
2022-09-14T11:38:22.326Z,54.86
2022-09-14T11:40:54.439Z,56.07
2022-09-14T11:43:36.520Z,55.18
2022-09-14T11:46:06.676Z,54.78
2022-09-14T11:48:42.754Z,54.42
2022-09-14T11:51:33.681Z,54.14
2022-09-14T11:54:00.960Z,54.04
2022-09-14T11:56:31.267Z,54.17
2022-09-14T11:59:00.772Z,54.06
2022-09-14T12:01:37.302Z,53.53
2022-09-14T12:04:13.438Z,53.84
2022-09-14T12:06:40.741Z,53.60
2022-09-14T12:09:14.343Z,52.78
2022-09-14T12:11:43.234Z,52.54
2022-09-14T12:14:15.702Z,50.97
2022-09-14T12:17:38.447Z,51.62
2022-09-14T12:20:27.182Z,51.67
2022-09-14T12:23:13.641Z,51.03
2022-09-14T12:25:53.628Z,51.81
2022-09-14T12:28:38.895Z,51.14
2022-09-14T12:31:10.346Z,50.88
2022-09-14T12:33:37.544Z,51.67
2022-09-14T12:36:05.582Z,50.55
2022-09-14T12:38:51.018Z,50.36
2022-09-14T12:41:18.261Z,51.64
2022-09-14T12:43:46.189Z,52.07
2022-09-14T12:46:22.637Z,52.39
2022-09-14T12:48:54.273Z,51.47
2022-09-14T12:51:34.053Z,51.55
2022-09-14T12:54:26.157Z,53.46
2022-09-14T12:57:15.428Z,54.49
2022-09-14T12:59:54.117Z,52.62
2022-09-14T13:03:10.200Z,51.59
2022-09-14T13:05:37.506Z,49.77
2022-09-14T13:08:10.205Z,49.16
2022-09-14T13:10:40.671Z,48.68
2022-09-14T13:13:30.794Z,47.85
2022-09-14T13:15:58.751Z,48.54
2022-09-14T13:18:35.081Z,47.61
2022-09-14T13:21:20.445Z,46.73
2022-09-14T13:23:48.267Z,46.58
2022-09-14T13:26:21.429Z,47.39
2022-09-14T13:28:51.215Z,49.27
2022-09-14T13:31:32.389Z,50.71
2022-09-14T13:33:59.904Z,54.11
2022-09-14T13:36:30.525Z,54.61
2022-09-14T13:39:01.631Z,54.45
2022-09-14T13:41:30.148Z,53.98
2022-09-14T13:43:58.321Z,52.85
2022-09-14T13:46:27.033Z,53.02
2022-09-14T13:48:54.765Z,53.42
2022-09-14T13:51:24.877Z,53.07
2022-09-14T13:53:55.006Z,52.20
2022-09-14T13:56:33.964Z,51.59
2022-09-14T13:59:07.161Z,52.04
2022-09-14T14:01:40.545Z,52.04
2022-09-14T14:04:25.986Z,51.05
2022-09-14T14:07:23.339Z,52.34
2022-09-14T14:09:53.700Z,51.76
2022-09-14T14:12:24.371Z,50.75
2022-09-14T14:15:14.810Z,51.38
2022-09-14T14:17:42.259Z,50.75
2022-09-14T14:20:27.947Z,51.15
2022-09-14T14:23:10.641Z,50.00
2022-09-14T14:25:46.026Z,50.87
2022-09-14T14:28:20.115Z,51.03
2022-09-14T14:30:47.383Z,50.80
2022-09-14T14:33:19.705Z,49.79
2022-09-14T14:35:48.676Z,50.81
2022-09-14T14:38:16.254Z,49.88
2022-09-14T14:40:44.371Z,48.23
2022-09-14T14:43:18.794Z,49.08
2022-09-14T14:45:46.156Z,48.62
2022-09-14T14:48:13.499Z,48.37
2022-09-14T14:50:40.726Z,48.65
2022-09-14T14:53:07.940Z,49.95
2022-09-14T14:55:37.464Z,50.09
2022-09-14T14:58:09.909Z,50.45
2022-09-14T15:00:38.639Z,49.84
2022-09-14T15:03:05.910Z,52.05
2022-09-14T15:05:33.639Z,51.78
2022-09-14T15:08:01.024Z,51.48
2022-09-14T15:10:29.332Z,51.64
2022-09-14T15:12:56.770Z,51.49
2022-09-14T15:15:26.325Z,51.77
2022-09-14T15:17:54.149Z,51.76
2022-09-14T15:20:22.073Z,51.65
2022-09-14T15:22:49.356Z,51.71
2022-09-14T15:25:18.058Z,52.09
2022-09-14T15:27:45.572Z,52.05
2022-09-14T15:30:13.728Z,51.66
2022-09-14T15:32:41.372Z,51.01
2022-09-14T15:35:12.538Z,51.02
2022-09-14T15:37:40.095Z,50.11
2022-09-14T15:40:07.934Z,50.29
2022-09-14T15:42:35.209Z,49.34
2022-09-14T15:45:02.701Z,49.82
2022-09-14T15:47:32.890Z,48.93
2022-09-14T15:50:04.009Z,48.55
2022-09-14T15:52:31.344Z,48.18
2022-09-14T15:54:58.704Z,48.39
2022-09-14T15:57:26.031Z,48.98
2022-09-14T15:59:54.204Z,48.34
2022-09-14T16:02:22.250Z,48.83
2022-09-14T16:04:49.644Z,50.23
2022-09-14T16:07:16.876Z,50.09
2022-09-14T16:09:44.179Z,50.63
2022-09-14T16:12:12.537Z,50.75
2022-09-14T16:14:40.101Z,50.49
2022-09-14T16:17:09.157Z,50.92
2022-09-14T16:19:36.423Z,50.57
2022-09-14T16:22:04.262Z,51.34
2022-09-14T16:24:31.812Z,50.92
2022-09-14T16:26:59.700Z,51.34
2022-09-14T16:29:27.416Z,49.70
2022-09-14T16:31:54.858Z,49.81
2022-09-14T16:34:27.340Z,50.77
2022-09-14T16:36:55.372Z,51.45
2022-09-14T16:39:25.489Z,51.15
2022-09-14T16:41:55.579Z,51.22
2022-09-14T16:44:24.670Z,50.38
2022-09-14T16:46:53.191Z,51.00
2022-09-14T16:49:25.041Z,51.12
2022-09-14T16:51:55.372Z,51.13
2022-09-14T16:54:24.391Z,52.16
2022-09-14T16:56:52.104Z,51.72
2022-09-14T16:59:20.577Z,52.06
2022-09-14T17:01:53.440Z,52.10
2022-09-14T17:04:22.351Z,51.83
2022-09-14T17:06:50.569Z,52.64
2022-09-14T17:09:23.784Z,53.49
2022-09-14T17:11:51.513Z,53.69
2022-09-14T17:14:21.740Z,53.85
2022-09-14T17:16:49.346Z,53.32
2022-09-14T17:19:17.296Z,54.49
2022-09-14T17:21:46.088Z,53.78
2022-09-14T17:24:14.431Z,54.77
2022-09-14T17:26:42.300Z,54.36
2022-09-14T17:29:09.994Z,55.59
2022-09-14T17:31:40.586Z,54.51
2022-09-14T17:34:09.990Z,55.52
2022-09-14T17:36:38.177Z,54.55
2022-09-14T17:39:11.412Z,54.16
2022-09-14T17:41:40.618Z,55.04
2022-09-14T17:44:10.594Z,54.15
2022-09-14T17:46:46.010Z,54.60
2022-09-14T17:49:18.292Z,53.87
2022-09-14T17:51:45.514Z,53.85
2022-09-14T17:54:13.209Z,54.35
2022-09-14T17:56:40.470Z,53.88
2022-09-14T17:59:11.655Z,54.67
2022-09-14T18:01:39.295Z,55.20
2022-09-14T18:04:11.029Z,55.14
2022-09-14T18:06:40.623Z,53.84
2022-09-14T18:09:11.589Z,54.43
2022-09-14T18:11:39.105Z,54.63
2022-09-14T18:14:06.456Z,54.24
2022-09-14T18:16:34.004Z,54.63
2022-09-14T18:19:01.628Z,54.80
2022-09-14T18:21:28.789Z,53.53
2022-09-14T18:23:56.344Z,53.69
2022-09-14T18:26:24.844Z,53.71
2022-09-14T18:28:55.868Z,53.42
2022-09-14T18:31:23.387Z,52.62
2022-09-14T18:33:53.946Z,52.67
2022-09-14T18:36:22.392Z,52.56
2022-09-14T18:38:52.992Z,52.85
2022-09-14T18:41:20.752Z,52.49
2022-09-14T18:43:50.872Z,52.60
2022-09-14T18:46:18.589Z,52.67
2022-09-14T18:48:46.744Z,53.16
2022-09-14T18:51:14.526Z,54.45
2022-09-14T18:53:42.391Z,53.69
2022-09-14T18:56:14.660Z,53.47
2022-09-14T18:58:44.279Z,53.81
2022-09-14T19:01:12.359Z,53.05
2022-09-14T19:03:41.641Z,54.47
2022-09-14T19:06:11.536Z,54.26
2022-09-14T19:08:38.993Z,54.49
2022-09-14T19:11:11.225Z,55.12
2022-09-14T19:13:38.793Z,54.86
2022-09-14T19:16:08.214Z,55.50
2022-09-14T19:18:35.817Z,55.79
2022-09-14T19:21:14.317Z,58.80
2022-09-14T19:23:42.962Z,59.85
2022-09-14T19:26:14.674Z,60.48
2022-09-14T19:28:42.322Z,62.85
2022-09-14T19:31:12.238Z,64.99
2022-09-14T19:33:44.512Z,66.22
2022-09-14T19:36:15.619Z,67.71
2022-09-14T19:38:43.457Z,67.69
2022-09-14T19:41:10.869Z,67.71
2022-09-14T19:43:38.509Z,68.65
2022-09-14T19:46:10.763Z,71.58
2022-09-14T19:48:38.486Z,73.24
2022-09-14T19:51:12.492Z,74.59
2022-09-14T19:53:39.726Z,76.12
2022-09-14T19:56:10.806Z,76.52
2022-09-14T19:58:39.874Z,76.01
2022-09-14T20:01:07.601Z,77.65
2022-09-14T20:03:36.979Z,76.88
2022-09-14T20:06:10.194Z,77.16
2022-09-14T20:08:37.923Z,77.98
2022-09-14T20:11:09.811Z,77.63
2022-09-14T20:13:38.026Z,78.21
2022-09-14T20:16:29.016Z,79.04
2022-09-14T20:18:58.253Z,79.85
2022-09-14T20:21:26.601Z,79.05
2022-09-14T20:24:14.480Z,80.24
2022-09-14T20:26:42.245Z,80.58
2022-09-14T20:29:09.506Z,80.13
2022-09-14T20:31:37.019Z,80.54
2022-09-14T20:34:04.520Z,81.26
2022-09-14T20:36:32.418Z,80.92
2022-09-14T20:39:00.029Z,80.72
2022-09-14T20:41:34.214Z,81.04
2022-09-14T20:44:01.914Z,78.67
2022-09-14T20:46:35.241Z,79.34
2022-09-14T20:49:04.570Z,79.32
2022-09-14T20:51:32.192Z,79.77
2022-09-14T20:53:59.539Z,79.98
2022-09-14T20:56:28.817Z,80.03
2022-09-14T20:58:58.078Z,79.98
2022-09-14T21:01:28.253Z,80.39
2022-09-14T21:03:56.035Z,82.00
2022-09-14T21:06:24.678Z,81.41
2022-09-14T21:08:52.051Z,82.99
2022-09-14T21:11:28.673Z,83.36
2022-09-14T21:13:57.671Z,83.35
2022-09-14T21:16:28.140Z,84.22
2022-09-14T21:19:06.593Z,85.93
2022-09-14T21:21:34.211Z,84.21
2022-09-14T21:24:03.125Z,82.21
2022-09-14T21:26:34.068Z,82.20
2022-09-14T21:29:04.829Z,84.57
2022-09-14T21:31:36.418Z,83.08
2022-09-14T21:34:05.701Z,83.41
2022-09-14T21:36:36.355Z,83.46
2022-09-14T21:39:25.605Z,82.96
2022-09-14T21:41:58.415Z,83.38
2022-09-14T21:44:31.318Z,84.51
2022-09-14T21:46:59.401Z,85.62
2022-09-14T21:49:26.707Z,86.58
2022-09-14T21:51:53.909Z,85.03
2022-09-14T21:54:21.446Z,84.82
2022-09-14T21:56:48.737Z,86.57
2022-09-14T21:59:18.470Z,87.43
2022-09-14T22:01:46.085Z,86.29
2022-09-14T22:04:22.686Z,82.97
2022-09-14T22:06:51.499Z,83.12
2022-09-14T22:09:21.778Z,86.20
2022-09-14T22:11:49.141Z,86.45
2022-09-14T22:14:19.159Z,88.41
2022-09-14T22:16:46.874Z,88.09
2022-09-14T22:19:24.092Z,88.20
2022-09-14T22:21:51.914Z,87.91
2022-09-14T22:24:21.973Z,87.12
2022-09-14T22:26:52.866Z,86.96
2022-09-14T22:29:21.181Z,86.52
2022-09-14T22:31:48.549Z,84.72
2022-09-14T22:34:16.767Z,84.13
2022-09-14T22:36:44.001Z,85.33
2022-09-14T22:39:11.642Z,84.09
2022-09-14T22:41:39.885Z,85.17
2022-09-14T22:44:07.630Z,86.95
2022-09-14T22:46:35.748Z,85.39
2022-09-14T22:49:03.504Z,87.60
2022-09-14T22:51:33.110Z,87.99
2022-09-14T22:54:00.904Z,89.32
2022-09-14T22:56:35.274Z,86.96
2022-09-14T22:59:05.552Z,86.35
2022-09-14T23:01:35.315Z,86.94
2022-09-14T23:04:11.190Z,86.24
2022-09-14T23:06:41.489Z,85.67
2022-09-14T23:09:10.006Z,86.07
2022-09-14T23:11:37.730Z,87.14
2022-09-14T23:14:05.121Z,86.18
2022-09-14T23:16:32.468Z,88.10
2022-09-14T23:19:01.553Z,86.13
2022-09-14T23:21:29.893Z,85.71
2022-09-14T23:23:59.476Z,85.03
2022-09-14T23:26:27.343Z,84.69
2022-09-14T23:28:57.069Z,84.23
2022-09-14T23:31:24.720Z,85.32
2022-09-14T23:33:53.541Z,85.14
2022-09-14T23:36:22.208Z,86.78
2022-09-14T23:38:50.050Z,86.33
2022-09-14T23:41:19.136Z,86.83
2022-09-14T23:43:46.584Z,87.36
2022-09-14T23:46:14.251Z,86.59
2022-09-14T23:48:41.629Z,86.58
2022-09-14T23:51:09.789Z,85.59
2022-09-14T23:53:37.443Z,86.86
2022-09-14T23:56:05.449Z,87.24
2022-09-14T23:58:32.621Z,86.23
